sensor_id;sensor_type;location;lat;lon;timestamp;pressure;altitude;pressure_sealevel;temperature;humidity
20656;BME280;10487;53.320;8.672;2023-04-07T00:00:41;101378.13;;;3.60;41.58
20656;BME280;10487;53.320;8.672;2023-04-07T00:03:42;101376.47;;;3.56;41.72
20656;BME280;10487;53.320;8.672;2023-04-07T00:06:44;101376.59;;;3.53;41.31
20656;BME280;10487;53.320;8.672;2023-04-07T00:09:46;101382.88;;;3.49;41.55
20656;BME280;10487;53.320;8.672;2023-04-07T00:12:47;101368.19;;;3.42;41.40
20656;BME280;10487;53.320;8.672;2023-04-07T00:15:49;101372.72;;;3.38;41.46
20656;BME280;10487;53.320;8.672;2023-04-07T00:18:51;101383.31;;;3.37;41.66
20656;BME280;10487;53.320;8.672;2023-04-07T00:21:52;101376.31;;;3.36;41.46
20656;BME280;10487;53.320;8.672;2023-04-07T00:24:54;101371.03;;;3.36;41.73
20656;BME280;10487;53.320;8.672;2023-04-07T00:27:56;101366.66;;;3.35;41.69
20656;BME280;10487;53.320;8.672;2023-04-07T00:30:58;101374.59;;;3.35;41.76
20656;BME280;10487;53.320;8.672;2023-04-07T00:33:59;101373.81;;;3.31;41.67
20656;BME280;10487;53.320;8.672;2023-04-07T00:37:01;101377.41;;;3.29;41.79
20656;BME280;10487;53.320;8.672;2023-04-07T00:40:03;101377.53;;;3.24;41.75
20656;BME280;10487;53.320;8.672;2023-04-07T00:43:05;101373.38;;;3.17;41.73
20656;BME280;10487;53.320;8.672;2023-04-07T00:46:07;101365.66;;;3.11;41.55
20656;BME280;10487;53.320;8.672;2023-04-07T00:49:08;101371.97;;;3.07;41.53
20656;BME280;10487;53.320;8.672;2023-04-07T00:52:13;101367.72;;;3.03;41.70
20656;BME280;10487;53.320;8.672;2023-04-07T00:55:14;101366.06;;;2.99;41.66
20656;BME280;10487;53.320;8.672;2023-04-07T00:58:16;101376.75;;;2.96;41.90
20656;BME280;10487;53.320;8.672;2023-04-07T01:01:22;101382.97;;;2.94;41.82
20656;BME280;10487;53.320;8.672;2023-04-07T01:07:33;101374.63;;;2.79;41.71
20656;BME280;10487;53.320;8.672;2023-04-07T01:10:44;101382.75;;;2.72;41.83
20656;BME280;10487;53.320;8.672;2023-04-07T01:13:52;101383.78;;;2.68;41.92
20656;BME280;10487;53.320;8.672;2023-04-07T01:16:56;101376.84;;;2.65;41.96
20656;BME280;10487;53.320;8.672;2023-04-07T01:20:03;101374.25;;;2.64;41.88
20656;BME280;10487;53.320;8.672;2023-04-07T01:23:14;101375.22;;;2.61;41.78
20656;BME280;10487;53.320;8.672;2023-04-07T01:26:21;101390.19;;;2.59;42.11
20656;BME280;10487;53.320;8.672;2023-04-07T01:29:39;101373.72;;;2.53;42.00
20656;BME280;10487;53.320;8.672;2023-04-07T01:32:49;101382.63;;;2.49;41.85
20656;BME280;10487;53.320;8.672;2023-04-07T01:35:52;101378.41;;;2.43;41.87
20656;BME280;10487;53.320;8.672;2023-04-07T01:38:56;101382.03;;;2.39;41.96
20656;BME280;10487;53.320;8.672;2023-04-07T01:42:00;101385.56;;;2.38;41.93
20656;BME280;10487;53.320;8.672;2023-04-07T01:45:05;101377.72;;;2.37;41.87
20656;BME280;10487;53.320;8.672;2023-04-07T01:48:08;101373.34;;;2.36;41.92
20656;BME280;10487;53.320;8.672;2023-04-07T01:51:10;101381.34;;;2.33;nan
20656;BME280;10487;53.320;8.672;2023-04-07T01:54:15;101381.41;;;2.31;42.16
20656;BME280;10487;53.320;8.672;2023-04-07T01:57:18;101384.94;;;2.30;42.02
20656;BME280;10487;53.320;8.672;2023-04-07T02:00:19;101380.53;;;2.31;41.95
20656;BME280;10487;53.320;8.672;2023-04-07T02:03:30;101380.59;;;2.29;41.90
20656;BME280;10487;53.320;8.672;2023-04-07T02:06:41;101374.47;;;2.27;42.37
20656;BME280;10487;53.320;8.672;2023-04-07T02:09:45;101374.59;;;2.24;42.42
20656;BME280;10487;53.320;8.672;2023-04-07T02:12:48;101378.13;;;2.23;42.03
20656;BME280;10487;53.320;8.672;2023-04-07T02:15:51;101372.03;;;2.21;42.23
20656;BME280;10487;53.320;8.672;2023-04-07T02:18:55;101370.38;;;2.17;42.27
20656;BME280;10487;53.320;8.672;2023-04-07T02:21:58;101370.50;;;2.14;42.50
20656;BME280;10487;53.320;8.672;2023-04-07T02:25:01;101360.00;;;2.12;42.27
20656;BME280;10487;53.320;8.672;2023-04-07T02:28:03;101362.69;;;2.11;42.51
20656;BME280;10487;53.320;8.672;2023-04-07T02:31:06;101357.50;;;2.08;42.49
20656;BME280;10487;53.320;8.672;2023-04-07T02:34:07;101364.59;;;2.06;42.13
20656;BME280;10487;53.320;8.672;2023-04-07T02:37:09;101361.22;;;2.01;42.42
20656;BME280;10487;53.320;8.672;2023-04-07T02:40:11;101372.69;;;1.98;42.39
20656;BME280;10487;53.320;8.672;2023-04-07T02:43:13;101381.59;;;1.94;42.59
20656;BME280;10487;53.320;8.672;2023-04-07T02:46:15;101386.94;;;1.91;42.68
20656;BME280;10487;53.320;8.672;2023-04-07T02:49:17;101380.88;;;1.88;42.66
20656;BME280;10487;53.320;8.672;2023-04-07T02:52:18;101375.69;;;1.86;42.40
20656;BME280;10487;53.320;8.672;2023-04-07T02:55:20;101380.13;;;1.84;42.58
20656;BME280;10487;53.320;8.672;2023-04-07T02:58:21;101392.44;;;1.82;42.24
20656;BME280;10487;53.320;8.672;2023-04-07T03:01:23;101392.56;;;1.79;42.73
20656;BME280;10487;53.320;8.672;2023-04-07T03:04:25;101388.19;;;1.78;42.65
20656;BME280;10487;53.320;8.672;2023-04-07T03:07:26;101385.53;;;1.78;42.71
20656;BME280;10487;53.320;8.672;2023-04-07T03:10:28;101383.91;;;1.74;42.52
20656;BME280;10487;53.320;8.672;2023-04-07T03:13:30;101380.50;;;1.71;42.40
20656;BME280;10487;53.320;8.672;2023-04-07T03:16:32;101393.72;;;1.68;42.77
20656;BME280;10487;53.320;8.672;2023-04-07T03:19:34;101386.88;;;1.62;42.42
20656;BME280;10487;53.320;8.672;2023-04-07T03:22:35;101386.09;;;1.59;42.79
20656;BME280;10487;53.320;8.672;2023-04-07T03:25:37;101380.03;;;1.55;42.89
20656;BME280;10487;53.320;8.672;2023-04-07T03:28:38;101384.44;;;1.55;42.72
20656;BME280;10487;53.320;8.672;2023-04-07T03:31:40;101380.97;;;1.52;42.95
20656;BME280;10487;53.320;8.672;2023-04-07T03:34:42;101374.94;;;1.49;42.59
20656;BME280;10487;53.320;8.672;2023-04-07T03:37:44;101375.81;;;1.49;42.65
20656;BME280;10487;53.320;8.672;2023-04-07T03:40:45;101379.34;;;1.48;42.87
20656;BME280;10487;53.320;8.672;2023-04-07T03:43:47;101382.03;;;1.45;42.51
20656;BME280;10487;53.320;8.672;2023-04-07T03:46:48;101386.56;;;1.40;42.84
20656;BME280;10487;53.320;8.672;2023-04-07T03:49:51;101383.19;;;1.35;42.92
20656;BME280;10487;53.320;8.672;2023-04-07T03:52:52;101384.16;;;1.31;43.00
20656;BME280;10487;53.320;8.672;2023-04-07T03:55:54;101386.91;;;1.27;42.75
20656;BME280;10487;53.320;8.672;2023-04-07T03:58:55;101397.50;;;1.24;42.93
20656;BME280;10487;53.320;8.672;2023-04-07T04:01:57;101390.56;;;1.21;42.97
20656;BME280;10487;53.320;8.672;2023-04-07T04:04:59;101393.31;;;1.17;42.91
20656;BME280;10487;53.320;8.672;2023-04-07T04:08:00;101392.50;;;1.13;42.64
20656;BME280;10487;53.320;8.672;2023-04-07T04:11:02;101399.63;;;1.10;42.74
20656;BME280;10487;53.320;8.672;2023-04-07T04:14:03;101400.56;;;1.06;42.95
20656;BME280;10487;53.320;8.672;2023-04-07T04:17:06;101401.50;;;1.03;43.08
20656;BME280;10487;53.320;8.672;2023-04-07T04:20:08;101407.75;;;0.99;42.84
20656;BME280;10487;53.320;8.672;2023-04-07T04:23:10;101408.75;;;0.95;43.22
20656;BME280;10487;53.320;8.672;2023-04-07T04:26:12;101419.31;;;0.92;43.13
20656;BME280;10487;53.320;8.672;2023-04-07T04:29:13;101414.13;;;0.89;42.84
20656;BME280;10487;53.320;8.672;2023-04-07T04:32:15;101414.16;;;0.88;42.86
20656;BME280;10487;53.320;8.672;2023-04-07T04:35:18;101420.38;;;0.85;42.82
20656;BME280;10487;53.320;8.672;2023-04-07T04:38:19;101424.72;;;0.83;42.95
20656;BME280;10487;53.320;8.672;2023-04-07T04:41:21;101420.41;;;0.82;43.16
20656;BME280;10487;53.320;8.672;2023-04-07T04:44:23;101424.00;;;0.76;42.92
20656;BME280;10487;53.320;8.672;2023-04-07T04:47:24;101427.56;;;0.75;43.29
20656;BME280;10487;53.320;8.672;2023-04-07T04:50:26;101443.34;;;0.74;43.16
20656;BME280;10487;53.320;8.672;2023-04-07T04:53:28;101437.22;;;0.73;43.11
20656;BME280;10487;53.320;8.672;2023-04-07T04:56:29;101439.88;;;0.72;42.92
20656;BME280;10487;53.320;8.672;2023-04-07T04:59:31;101439.06;;;0.70;43.06
20656;BME280;10487;53.320;8.672;2023-04-07T05:02:32;101437.31;;;0.69;43.20
20656;BME280;10487;53.320;8.672;2023-04-07T05:05:34;101448.69;;;0.69;43.32
20656;BME280;10487;53.320;8.672;2023-04-07T05:08:36;101448.69;;;0.69;43.27
20656;BME280;10487;53.320;8.672;2023-04-07T05:11:39;101454.78;;;0.71;43.26
20656;BME280;10487;53.320;8.672;2023-04-07T05:14:41;101453.91;;;0.72;43.34
20656;BME280;10487;53.320;8.672;2023-04-07T05:17:43;101464.34;;;0.74;43.13
20656;BME280;10487;53.320;8.672;2023-04-07T05:20:44;101465.19;;;0.76;43.14
20656;BME280;10487;53.320;8.672;2023-04-07T05:23:48;101466.00;;;0.79;43.11
20656;BME280;10487;53.320;8.672;2023-04-07T05:26:50;101464.16;;;0.83;43.26
20656;BME280;10487;53.320;8.672;2023-04-07T05:29:52;101465.78;;;0.90;43.40
20656;BME280;10487;53.320;8.672;2023-04-07T05:32:53;101464.81;;;0.94;43.10
20656;BME280;10487;53.320;8.672;2023-04-07T05:35:55;101468.16;;;1.01;43.01
20656;BME280;10487;53.320;8.672;2023-04-07T05:38:57;101481.13;;;1.08;42.98
20656;BME280;10487;53.320;8.672;2023-04-07T05:41:58;101480.19;;;1.12;43.04
20656;BME280;10487;53.320;8.672;2023-04-07T05:45:03;101478.22;;;1.20;42.99
20656;BME280;10487;53.320;8.672;2023-04-07T05:48:05;101481.53;;;1.28;43.14
20656;BME280;10487;53.320;8.672;2023-04-07T05:51:06;101480.41;;;1.38;43.20
20656;BME280;10487;53.320;8.672;2023-04-07T05:54:08;101484.53;;;1.48;43.01
20656;BME280;10487;53.320;8.672;2023-04-07T05:57:10;101489.56;;;1.58;42.88
20656;BME280;10487;53.320;8.672;2023-04-07T06:00:12;101490.25;;;1.66;43.12
20656;BME280;10487;53.320;8.672;2023-04-07T06:03:14;101491.91;;;1.70;42.85
20656;BME280;10487;53.320;8.672;2023-04-07T06:06:15;101504.97;;;1.74;42.87
20656;BME280;10487;53.320;8.672;2023-04-07T06:09:17;101505.66;;;1.81;42.88
20656;BME280;10487;53.320;8.672;2023-04-07T06:12:18;101508.16;;;1.85;43.40
20656;BME280;10487;53.320;8.672;2023-04-07T06:15:20;101511.53;;;1.92;43.02
20656;BME280;10487;53.320;8.672;2023-04-07T06:18:22;101516.59;;;1.98;43.08
20656;BME280;10487;53.320;8.672;2023-04-07T06:21:24;101516.47;;;2.04;42.97
20656;BME280;10487;53.320;8.672;2023-04-07T06:24:27;101521.53;;;2.11;43.29
20656;BME280;10487;53.320;8.672;2023-04-07T06:27:29;101525.66;;;2.20;42.81
20656;BME280;10487;53.320;8.672;2023-04-07T06:30:30;101521.97;;;2.27;42.89
20656;BME280;10487;53.320;8.672;2023-04-07T06:33:32;101531.47;;;2.33;42.91
20656;BME280;10487;53.320;8.672;2023-04-07T06:36:34;101529.56;;;2.38;42.84
20656;BME280;10487;53.320;8.672;2023-04-07T06:39:36;101539.00;;;2.46;42.93
20656;BME280;10487;53.320;8.672;2023-04-07T06:42:38;101536.09;;;2.55;43.16
20656;BME280;10487;53.320;8.672;2023-04-07T06:45:40;101543.72;;;2.66;43.10
20656;BME280;10487;53.320;8.672;2023-04-07T06:48:41;101545.22;;;2.74;43.01
20656;BME280;10487;53.320;8.672;2023-04-07T06:51:43;101556.34;;;2.84;42.95
20656;BME280;10487;53.320;8.672;2023-04-07T06:54:45;101549.88;;;2.96;42.83
20656;BME280;10487;53.320;8.672;2023-04-07T06:57:46;101548.78;;;3.03;43.07
20656;BME280;10487;53.320;8.672;2023-04-07T07:00:48;101553.81;;;3.10;43.00
20656;BME280;10487;53.320;8.672;2023-04-07T07:03:50;101555.28;;;3.20;43.10
20656;BME280;10487;53.320;8.672;2023-04-07T07:06:52;101569.06;;;3.30;42.85
20656;BME280;10487;53.320;8.672;2023-04-07T07:09:56;101560.72;;;3.43;42.83
20656;BME280;10487;53.320;8.672;2023-04-07T07:12:57;101568.16;;;3.59;42.84
20656;BME280;10487;53.320;8.672;2023-04-07T07:15:59;101570.38;;;3.72;42.93
20656;BME280;10487;53.320;8.672;2023-04-07T07:19:01;101567.22;;;3.87;42.85
20656;BME280;10487;53.320;8.672;2023-04-07T07:22:03;101576.25;;;4.06;42.68
20656;BME280;10487;53.320;8.672;2023-04-07T07:25:05;101572.13;;;4.24;42.83
20656;BME280;10487;53.320;8.672;2023-04-07T07:28:07;101578.56;;;4.42;42.73
20656;BME280;10487;53.320;8.672;2023-04-07T07:31:10;101574.44;;;4.58;42.59
20656;BME280;10487;53.320;8.672;2023-04-07T07:34:13;101590.56;;;4.75;42.60
20656;BME280;10487;53.320;8.672;2023-04-07T07:37:15;101590.16;;;4.87;42.54
20656;BME280;10487;53.320;8.672;2023-04-07T07:40:17;101594.03;;;5.00;42.55
20656;BME280;10487;53.320;8.672;2023-04-07T07:43:18;101592.63;;;5.15;42.55
20656;BME280;10487;53.320;8.672;2023-04-07T07:46:20;101600.97;;;5.27;42.46
20656;BME280;10487;53.320;8.672;2023-04-07T07:49:24;101602.44;;;5.34;42.55
20656;BME280;10487;53.320;8.672;2023-04-07T07:52:25;101608.31;;;5.43;42.57
20656;BME280;10487;53.320;8.672;2023-04-07T07:55:27;101605.25;;;5.53;42.60
20656;BME280;10487;53.320;8.672;2023-04-07T07:58:29;101612.91;;;5.61;42.54
20656;BME280;10487;53.320;8.672;2023-04-07T08:01:31;101618.97;;;5.64;42.43
20656;BME280;10487;53.320;8.672;2023-04-07T08:04:34;101620.47;;;5.70;42.39
20656;BME280;10487;53.320;8.672;2023-04-07T08:07:36;101625.59;;;5.74;42.39
20656;BME280;10487;53.320;8.672;2023-04-07T08:10:38;101628.81;;;5.82;42.36
20656;BME280;10487;53.320;8.672;2023-04-07T08:13:39;101620.53;;;5.90;42.33
20656;BME280;10487;53.320;8.672;2023-04-07T08:16:46;101621.19;;;5.96;42.39
20656;BME280;10487;53.320;8.672;2023-04-07T08:19:47;101629.63;;;6.06;42.32
20656;BME280;10487;53.320;8.672;2023-04-07T08:22:49;101631.00;;;6.15;42.10
20656;BME280;10487;53.320;8.672;2023-04-07T08:25:51;101632.34;;;6.25;42.05
20656;BME280;10487;53.320;8.672;2023-04-07T08:28:52;101626.66;;;6.34;42.08
20656;BME280;10487;53.320;8.672;2023-04-07T08:31:56;101637.47;;;6.49;41.99
20656;BME280;10487;53.320;8.672;2023-04-07T08:34:57;101636.16;;;6.59;41.98
20656;BME280;10487;53.320;8.672;2023-04-07T08:37:59;101629.31;;;6.76;41.94
20656;BME280;10487;53.320;8.672;2023-04-07T08:41:07;101637.09;;;6.99;41.95
20656;BME280;10487;53.320;8.672;2023-04-07T08:44:11;101643.59;;;7.12;41.92
20656;BME280;10487;53.320;8.672;2023-04-07T08:47:16;101650.97;;;7.24;41.72
20656;BME280;10487;53.320;8.672;2023-04-07T08:50:18;101647.19;;;7.29;41.48
20656;BME280;10487;53.320;8.672;2023-04-07T08:53:24;101646.91;;;7.35;41.61
20656;BME280;10487;53.320;8.672;2023-04-07T08:56:28;101643.84;;;7.45;41.38
20656;BME280;10487;53.320;8.672;2023-04-07T08:59:31;101641.53;;;7.56;41.47
20656;BME280;10487;53.320;8.672;2023-04-07T09:02:37;101657.97;;;7.64;41.31
20656;BME280;10487;53.320;8.672;2023-04-07T09:05:39;101659.63;;;7.66;41.31
20656;BME280;10487;53.320;8.672;2023-04-07T09:08:41;101653.31;;;7.69;41.15
20656;BME280;10487;53.320;8.672;2023-04-07T09:11:42;101652.22;;;7.73;41.16
20656;BME280;10487;53.320;8.672;2023-04-07T09:14:44;101649.19;;;7.80;41.02
20656;BME280;10487;53.320;8.672;2023-04-07T09:17:46;101658.53;;;7.89;41.03
20656;BME280;10487;53.320;8.672;2023-04-07T09:21:00;101654.41;;;8.00;41.10
20656;BME280;10487;53.320;8.672;2023-04-07T09:24:19;101652.38;;;8.07;41.05
20656;BME280;10487;53.320;8.672;2023-04-07T09:27:21;101652.13;;;8.12;40.92
20656;BME280;10487;53.320;8.672;2023-04-07T09:30:23;101661.03;;;8.11;40.76
20656;BME280;10487;53.320;8.672;2023-04-07T09:33:26;101654.69;;;8.13;40.70
20656;BME280;10487;53.320;8.672;2023-04-07T09:36:40;101655.88;;;8.25;40.88
20656;BME280;10487;53.320;8.672;2023-04-07T09:39:51;101661.53;;;8.36;40.67
20656;BME280;10487;53.320;8.672;2023-04-07T09:42:54;101664.59;;;8.45;40.59
20656;BME280;10487;53.320;8.672;2023-04-07T09:46:06;101657.25;;;8.50;40.61
20656;BME280;10487;53.320;8.672;2023-04-07T09:49:08;101656.00;;;8.57;40.45
20656;BME280;10487;53.320;8.672;2023-04-07T09:52:10;101658.03;;;8.70;40.52
20656;BME280;10487;53.320;8.672;2023-04-07T09:55:12;101667.19;;;8.81;40.43
20656;BME280;10487;53.320;8.672;2023-04-07T09:58:14;101666.69;;;8.90;40.25
20656;BME280;10487;53.320;8.672;2023-04-07T10:01:19;101666.22;;;8.99;40.04
20656;BME280;10487;53.320;8.672;2023-04-07T10:04:21;101671.84;;;9.10;40.02
20656;BME280;10487;53.320;8.672;2023-04-07T10:07:24;101658.03;;;9.19;39.70
20656;BME280;10487;53.320;8.672;2023-04-07T10:10:26;101661.88;;;9.31;39.72
20656;BME280;10487;53.320;8.672;2023-04-07T10:13:33;101654.16;;;9.42;39.69
20656;BME280;10487;53.320;8.672;2023-04-07T10:16:38;101659.69;;;9.55;39.47
20656;BME280;10487;53.320;8.672;2023-04-07T10:19:40;101649.38;;;9.64;39.39
20656;BME280;10487;53.320;8.672;2023-04-07T10:22:43;101651.13;;;9.81;39.39
20656;BME280;10487;53.320;8.672;2023-04-07T10:25:48;101658.59;;;9.90;39.29
20656;BME280;10487;53.320;8.672;2023-04-07T10:28:58;101648.75;;;10.06;39.33
20656;BME280;10487;53.320;8.672;2023-04-07T10:32:01;101657.94;;;10.16;39.15
20656;BME280;10487;53.320;8.672;2023-04-07T10:35:04;101665.13;;;10.16;39.09
20656;BME280;10487;53.320;8.672;2023-04-07T10:41:31;101669.16;;;10.07;39.23
20656;BME280;10487;53.320;8.672;2023-04-07T10:48:09;101673.59;;;10.22;39.03
20656;BME280;10487;53.320;8.672;2023-04-07T10:51:12;101666.63;;;10.35;39.23
20656;BME280;10487;53.320;8.672;2023-04-07T10:54:17;101672.78;;;10.51;39.07
20656;BME280;10487;53.320;8.672;2023-04-07T10:57:23;101673.03;;;10.63;38.76
20656;BME280;10487;53.320;8.672;2023-04-07T11:00:25;101674.47;;;10.68;38.91
20656;BME280;10487;53.320;8.672;2023-04-07T11:03:28;101675.91;;;10.74;38.75
20656;BME280;10487;53.320;8.672;2023-04-07T11:06:30;101679.28;;;10.77;38.94
20656;BME280;10487;53.320;8.672;2023-04-07T11:09:32;101679.16;;;10.79;38.67
20656;BME280;10487;53.320;8.672;2023-04-07T11:12:34;101680.22;;;10.76;38.98
20656;BME280;10487;53.320;8.672;2023-04-07T11:15:37;101681.94;;;10.77;39.07
20656;BME280;10487;53.320;8.672;2023-04-07T11:18:41;101677.25;;;10.81;38.92
20656;BME280;10487;53.320;8.672;2023-04-07T11:21:43;101684.91;;;10.87;38.79
20656;BME280;10487;53.320;8.672;2023-04-07T11:24:45;101680.34;;;10.89;38.72
20656;BME280;10487;53.320;8.672;2023-04-07T11:27:47;101676.72;;;10.90;38.88
20656;BME280;10487;53.320;8.672;2023-04-07T11:30:51;101679.13;;;10.94;38.80
20656;BME280;10487;53.320;8.672;2023-04-07T11:33:54;101680.56;;;11.00;38.84
20656;BME280;10487;53.320;8.672;2023-04-07T11:36:57;101678.47;;;11.05;38.80
20656;BME280;10487;53.320;8.672;2023-04-07T11:40:02;101703.91;;;11.10;38.59
20656;BME280;10487;53.320;8.672;2023-04-07T11:43:15;101692.13;;;11.14;38.47
20656;BME280;10487;53.320;8.672;2023-04-07T11:46:17;101700.03;;;11.16;38.60
20656;BME280;10487;53.320;8.672;2023-04-07T11:49:19;101684.94;;;11.15;38.54
20656;BME280;10487;53.320;8.672;2023-04-07T11:52:21;101683.13;;;11.15;38.43
20656;BME280;10487;53.320;8.672;2023-04-07T11:55:23;101685.72;;;11.17;38.34
20656;BME280;10487;53.320;8.672;2023-04-07T11:58:25;101681.22;;;11.17;38.59
20656;BME280;10487;53.320;8.672;2023-04-07T12:01:38;101691.25;;;11.28;38.76
20656;BME280;10487;53.320;8.672;2023-04-07T12:04:54;101697.00;;;11.36;38.53
20656;BME280;10487;53.320;8.672;2023-04-07T12:07:57;101690.47;;;11.40;38.39
20656;BME280;10487;53.320;8.672;2023-04-07T12:11:03;101700.06;;;11.44;38.39
20656;BME280;10487;53.320;8.672;2023-04-07T12:14:05;101708.81;;;11.46;38.40
20656;BME280;10487;53.320;8.672;2023-04-07T12:17:19;101703.78;;;11.42;38.13
20656;BME280;10487;53.320;8.672;2023-04-07T12:20:20;101701.47;;;11.36;38.29
20656;BME280;10487;53.320;8.672;2023-04-07T12:23:22;101705.00;;;11.36;38.17
20656;BME280;10487;53.320;8.672;2023-04-07T12:26:24;101697.84;;;11.37;38.34
20656;BME280;10487;53.320;8.672;2023-04-07T12:29:26;101704.06;;;11.37;38.16
20656;BME280;10487;53.320;8.672;2023-04-07T12:32:28;101705.94;;;11.35;38.17
20656;BME280;10487;53.320;8.672;2023-04-07T12:35:29;101693.63;;;11.33;38.04
20656;BME280;10487;53.320;8.672;2023-04-07T12:38:31;101700.53;;;11.37;38.26
20656;BME280;10487;53.320;8.672;2023-04-07T12:41:33;101710.63;;;11.46;37.96
20656;BME280;10487;53.320;8.672;2023-04-07T12:44:35;101710.53;;;11.47;38.16
20656;BME280;10487;53.320;8.672;2023-04-07T12:47:37;101702.78;;;11.43;38.11
20656;BME280;10487;53.320;8.672;2023-04-07T12:50:39;101705.56;;;11.41;38.06
20656;BME280;10487;53.320;8.672;2023-04-07T12:53:40;101706.34;;;11.43;37.97
20656;BME280;10487;53.320;8.672;2023-04-07T12:56:42;101709.88;;;11.44;37.87
20656;BME280;10487;53.320;8.672;2023-04-07T12:59:44;101713.41;;;11.44;37.76
20656;BME280;10487;53.320;8.672;2023-04-07T13:02:45;101709.88;;;11.44;38.01
20656;BME280;10487;53.320;8.672;2023-04-07T13:05:47;101713.31;;;11.46;37.93
20656;BME280;10487;53.320;8.672;2023-04-07T13:08:49;101713.50;;;11.43;37.70
20656;BME280;10487;53.320;8.672;2023-04-07T13:11:52;101707.19;;;11.44;38.07
20656;BME280;10487;53.320;8.672;2023-04-07T13:14:53;101716.09;;;11.44;37.89
20656;BME280;10487;53.320;8.672;2023-04-07T13:18:00;101714.34;;;11.43;37.95
20656;BME280;10487;53.320;8.672;2023-04-07T13:21:02;101712.91;;;11.38;38.07
20656;BME280;10487;53.320;8.672;2023-04-07T13:24:07;101708.03;;;11.30;37.88
20656;BME280;10487;53.320;8.672;2023-04-07T13:27:09;101708.91;;;11.31;37.56
20656;BME280;10487;53.320;8.672;2023-04-07T13:30:12;101711.69;;;11.29;37.80
20656;BME280;10487;53.320;8.672;2023-04-07T13:33:13;101702.03;;;11.27;37.70
20656;BME280;10487;53.320;8.672;2023-04-07T13:36:15;101701.47;;;11.22;37.76
20656;BME280;10487;53.320;8.672;2023-04-07T13:39:17;101713.28;;;11.17;37.78
20656;BME280;10487;53.320;8.672;2023-04-07T13:42:18;101714.31;;;11.15;37.61
20656;BME280;10487;53.320;8.672;2023-04-07T13:45:21;101720.44;;;11.17;37.47
20656;BME280;10487;53.320;8.672;2023-04-07T13:48:22;101719.75;;;11.13;37.30
20656;BME280;10487;53.320;8.672;2023-04-07T13:51:24;101707.56;;;11.09;37.61
20656;BME280;10487;53.320;8.672;2023-04-07T13:54:26;101706.88;;;11.06;37.55
20656;BME280;10487;53.320;8.672;2023-04-07T13:57:27;101708.50;;;11.08;37.63
20656;BME280;10487;53.320;8.672;2023-04-07T14:00:29;101710.88;;;11.13;37.64
20656;BME280;10487;53.320;8.672;2023-04-07T14:03:30;101709.84;;;11.15;37.42
20656;BME280;10487;53.320;8.672;2023-04-07T14:06:33;101705.38;;;11.16;37.23
20656;BME280;10487;53.320;8.672;2023-04-07T14:09:36;101700.97;;;11.15;37.56
20656;BME280;10487;53.320;8.672;2023-04-07T14:12:38;101702.81;;;11.14;37.27
20656;BME280;10487;53.320;8.672;2023-04-07T14:15:40;101691.25;;;11.14;37.33
20656;BME280;10487;53.320;8.672;2023-04-07T14:18:42;101699.84;;;11.19;37.63
20656;BME280;10487;53.320;8.672;2023-04-07T14:21:44;101702.50;;;11.19;37.25
20656;BME280;10487;53.320;8.672;2023-04-07T14:24:46;101704.44;;;11.17;37.46
20656;BME280;10487;53.320;8.672;2023-04-07T14:27:47;101696.47;;;11.15;37.20
20656;BME280;10487;53.320;8.672;2023-04-07T14:30:49;101694.78;;;11.14;37.22
20656;BME280;10487;53.320;8.672;2023-04-07T14:33:51;101707.28;;;11.14;37.27
20656;BME280;10487;53.320;8.672;2023-04-07T14:36:54;101705.81;;;11.08;37.10
20656;BME280;10487;53.320;8.672;2023-04-07T14:39:56;101714.81;;;11.07;37.26
20656;BME280;10487;53.320;8.672;2023-04-07T14:43:01;101704.31;;;11.04;37.29
20656;BME280;10487;53.320;8.672;2023-04-07T14:46:07;101709.66;;;11.04;37.33
20656;BME280;10487;53.320;8.672;2023-04-07T14:49:09;101711.47;;;11.04;37.18
20656;BME280;10487;53.320;8.672;2023-04-07T14:52:11;101706.56;;;10.96;37.09
20656;BME280;10487;53.320;8.672;2023-04-07T14:55:14;101714.19;;;10.88;37.05
20656;BME280;10487;53.320;8.672;2023-04-07T14:58:16;101713.53;;;10.85;36.99
20656;BME280;10487;53.320;8.672;2023-04-07T15:01:18;101717.13;;;10.84;36.96
20656;BME280;10487;53.320;8.672;2023-04-07T15:04:19;101719.97;;;10.81;37.16
20656;BME280;10487;53.320;8.672;2023-04-07T15:07:21;101722.75;;;10.79;37.11
20656;BME280;10487;53.320;8.672;2023-04-07T15:10:23;101715.78;;;10.77;36.86
20656;BME280;10487;53.320;8.672;2023-04-07T15:13:24;101720.19;;;10.78;36.81
20656;BME280;10487;53.320;8.672;2023-04-07T15:16:26;101722.06;;;10.76;36.86
20656;BME280;10487;53.320;8.672;2023-04-07T15:19:28;101726.63;;;10.74;36.92
20656;BME280;10487;53.320;8.672;2023-04-07T15:22:30;101728.53;;;10.72;36.86
20656;BME280;10487;53.320;8.672;2023-04-07T15:25:31;101723.38;;;10.69;36.88
20656;BME280;10487;53.320;8.672;2023-04-07T15:28:33;101723.53;;;10.66;36.89
20656;BME280;10487;53.320;8.672;2023-04-07T15:31:35;101728.22;;;10.62;36.89
20656;BME280;10487;53.320;8.672;2023-04-07T15:34:36;101732.09;;;10.57;36.83
20656;BME280;10487;53.320;8.672;2023-04-07T15:37:38;101726.06;;;10.53;36.89
20656;BME280;10487;53.320;8.672;2023-04-07T15:40:40;101735.09;;;10.50;36.73
20656;BME280;10487;53.320;8.672;2023-04-07T15:43:41;101733.41;;;10.49;36.83
20656;BME280;10487;53.320;8.672;2023-04-07T15:46:43;101735.22;;;10.49;36.91
20656;BME280;10487;53.320;8.672;2023-04-07T15:49:45;101737.97;;;10.47;36.81
20656;BME280;10487;53.320;8.672;2023-04-07T15:52:46;101737.25;;;10.44;36.80
20656;BME280;10487;53.320;8.672;2023-04-07T15:55:48;101741.72;;;10.43;36.69
20656;BME280;10487;53.320;8.672;2023-04-07T15:58:50;101750.56;;;10.45;36.87
20656;BME280;10487;53.320;8.672;2023-04-07T16:01:52;101755.88;;;10.45;36.87
20656;BME280;10487;53.320;8.672;2023-04-07T16:04:54;101751.63;;;10.41;36.74
20656;BME280;10487;53.320;8.672;2023-04-07T16:07:55;101755.50;;;10.36;36.78
20656;BME280;10487;53.320;8.672;2023-04-07T16:10:57;101753.25;;;10.28;36.80
20656;BME280;10487;53.320;8.672;2023-04-07T16:13:59;101750.97;;;10.22;36.99